ADDS METAR Data INFO
IDs: Format: Raw Decoded Include TAF

Data at: 1135 UTC 23 Jun 2018

KC75 231115Z AUTO 00000KT 5SM BR OVC005 17/17 A2973 RMK AO2 T01700170
KC75 231055Z AUTO 34004KT 5SM BR OVC005 17/17 A2974 RMK AO2 T01680168
KC75 231035Z AUTO 00000KT 4SM BR OVC003 17/17 A2973 RMK AO2 T01660166
KC75 231015Z AUTO 00000KT 5SM BR BKN003 OVC011 17/17 A2973 RMK AO2 T01660166
KC75 230955Z AUTO 33003KT 4SM BR BKN003 OVC009 17/17 A2974 RMK AO2 T01660166
KC75 230935Z AUTO 34006KT 5SM BR OVC003 17/17 A2974 RMK AO2 T01660166
KC75 230915Z AUTO 33003KT 5SM BR OVC003 17/17 A2974 RMK AO2 T01650165
KC75 230855Z AUTO 29003KT 3SM BR OVC003 17/17 A2975 RMK AO2 T01650165
KC75 230835Z AUTO 31003KT 3SM BR OVC003 17/17 A2975 RMK AO2 T01660165
KC75 230815Z AUTO 27004KT 2SM BR OVC003 17/17 A2976 RMK AO2 T01660165
KC75 230755Z AUTO 26003KT 4SM BR OVC007 17/16 A2975 RMK AO2 T01680164
KC75 230735Z AUTO 00000KT 7SM OVC007 17/16 A2974 RMK AO2 T01690162
KC75 230715Z AUTO 00000KT 10SM OVC007 17/16 A2974 RMK AO2 T01700162
KC75 230655Z AUTO 00000KT 7SM OVC007 17/17 A2974 RMK AO2 T01700165
KC75 230635Z AUTO 00000KT 7SM OVC007 17/16 A2974 RMK AO2 T01680163
KC75 230615Z AUTO 00000KT 7SM OVC007 17/16 A2972 RMK AO2 T01660162
KC75 230555Z AUTO 00000KT 7SM OVC009 17/16 A2973 RMK AO2 T01670162 10179 20165 401850165
KC75 230535Z AUTO 03003KT 7SM OVC009 17/16 A2973 RMK AO2 T01670162
KC75 230515Z AUTO 00000KT 7SM OVC009 17/16 A2973 RMK AO2 T01660163
KC75 230455Z AUTO 00000KT 7SM OVC011 17/16 A2974 RMK AO2 T01660162
KC75 230435Z AUTO 00000KT 7SM OVC011 17/16 A2974 RMK AO2 T01650161
KC75 230415Z AUTO 00000KT 5SM BR OVC011 17/16 A2975 RMK AO2 T01650160
KC75 230355Z AUTO 00000KT 5SM BR OVC009 17/16 A2974 RMK AO2 T01660158
KC75 230330Z AUTO 00000KT 7SM OVC009 17/16 A2974 RMK AO2 T01660157
KC75 230315Z AUTO 05003KT 10SM OVC009 17/16 A2974 RMK AO2 T01670158
KC75 230255Z AUTO 05004KT 10SM OVC009 17/16 A2974 RMK AO2 T01680157
KC75 230235Z AUTO 04004KT 10SM OVC013 17/16 A2973 RMK AO2 T01700157
KC75 230215Z AUTO 03003KT 10SM OVC013 17/16 A2973 RMK AO2 T01700158
KC75 230155Z AUTO 00000KT 10SM OVC011 17/16 A2973 RMK AO2 T01710160
KC75 230135Z AUTO 00000KT 10SM OVC011 17/16 A2972 RMK AO2 T01720160
KC75 230110Z AUTO 00000KT 10SM OVC011 17/16 A2973 RMK AO2 T01740161
KC75 230055Z AUTO 00000KT 10SM OVC011 18/16 A2973 RMK AO2 T01750162
KC75 230035Z AUTO 00000KT 10SM OVC011 18/16 A2973 RMK AO2 T01750161
KC75 230015Z AUTO 02003KT 10SM OVC011 18/16 A2973 RMK AO2 T01780164
KC75 222355Z AUTO 00000KT 10SM OVC013 18/16 A2973 RMK AO2 T01790164 10185 20177
KC75 222335Z AUTO 01003KT 10SM OVC013 18/16 A2973 RMK AO2 T01790163
KC75 222315Z AUTO 01003KT 10SM OVC013 18/16 A2973 RMK AO2 T01790162
KC75 222255Z AUTO 36004KT 10SM OVC011 18/16 A2972 RMK AO2 T01790162
KC75 222235Z AUTO 36005KT 10SM OVC011 18/16 A2973 RMK AO2 T01800163
KC75 222210Z AUTO 35005KT 10SM OVC011 18/16 A2973 RMK AO2 T01800162
KC75 222155Z AUTO 36005KT 10SM OVC011 18/16 A2973 RMK AO2 T01810162
KC75 222135Z AUTO 36005KT 10SM OVC011 19/17 A2973 RMK AO2 T01850165
KC75 222115Z AUTO 03004KT 10SM OVC011 19/17 A2973 RMK AO2 T01850165
KC75 222055Z AUTO 36003KT 10SM OVC011 18/17 A2973 RMK AO2 T01830165
KC75 222035Z AUTO 36005KT 10SM OVC011 18/17 A2973 RMK AO2 T01830165
KC75 222015Z AUTO 36005KT 10SM OVC011 18/16 A2973 RMK AO2 T01800164
KC75 221955Z AUTO 01004KT 10SM OVC009 18/16 A2973 RMK AO2 LTG DSNT E T01780164
KC75 221935Z AUTO 01004KT 10SM OVC009 18/17 A2973 RMK AO2 T01770165
KC75 221915Z AUTO 34006KT 10SM OVC009 18/17 A2973 RMK AO2 T01780165
KC75 221855Z AUTO 36006KT 10SM OVC009 18/17 A2973 RMK AO2 T01790167
KC75 221835Z AUTO 01005KT 10SM OVC009 18/17 A2973 RMK AO2 T01800167
KC75 221815Z AUTO 02005KT 10SM OVC009 18/17 A2974 RMK AO2 LTG DSNT SE T01770166
KC75 221755Z AUTO 01005KT 10SM OVC009 18/17 A2974 RMK AO2 60003 T01790169 10183 20171
KC75 221735Z AUTO 01005KT 10SM OVC009 18/17 A2973 RMK AO2 LTG DSNT E AND SE T01790170
KC75 221715Z AUTO 01006KT 10SM OVC009 18/17 A2973 RMK AO2 T01800171
KC75 221650Z AUTO 00000KT 10SM OVC009 18/18 A2973 RMK AO2 LTG DSNT SE T01830175
KC75 221635Z AUTO 04004KT 10SM OVC009 18/18 A2973 RMK AO2 T01810175
KC75 221610Z AUTO 04006KT 10SM OVC007 18/18 A2973 RMK AO2 T01810176
KC75 221555Z AUTO 05006KT 10SM OVC007 18/18 A2973 RMK AO2 T01810176
KC75 221535Z AUTO 05009KT 10SM OVC007 18/18 A2972 RMK AO2 T01800177
KC75 221515Z AUTO 04006KT 10SM OVC007 18/18 A2973 RMK AO2 T01760175
KC75 221455Z AUTO 04004KT 7SM OVC007 18/18 A2973 RMK AO2 P0001 60003 T01750175
KC75 221435Z AUTO 05005KT 3SM DZ OVC005 18/18 A2973 RMK AO2 T01760176
KC75 221415Z AUTO 07006KT 3SM DZ OVC005 18/18 A2973 RMK AO2 T01760176
KC75 221355Z AUTO 05005KT 1 3/4SM DZ OVC005 18/18 A2973 RMK AO2 P0001 T01760176
KC75 221335Z AUTO 00000KT 1 1/4SM DZ OVC005 18/18 A2973 RMK AO2 T01760176
KC75 221315Z AUTO 00000KT 2SM DZ OVC007 18/18 A2973 RMK AO2 T01750175
KC75 221255Z AUTO 06004KT 1 3/4SM RA OVC007 17/17 A2973 RMK AO2 P0001 T01720172
KC75 221235Z AUTO 06005KT 3SM BR OVC005 17/17 A2972 RMK AO2 T01720172
KC75 221215Z AUTO 06005KT 2SM BR OVC005 17/17 A2972 RMK AO2 T01710171
KC75 221155Z AUTO 07007KT 2SM -RA OVC005 17/17 A2971 RMK AO2 60061 70089 T01710171 10183 20168
KC75 221130Z AUTO 05005KT 2 1/2SM BR OVC005 17/17 A2971 RMK AO2 T01710171
KC75 221115Z AUTO 07007KT 2 1/2SM BR OVC005 17/17 A2972 RMK AO2 T01700170
KC75 221055Z AUTO 05005KT 4SM -RA OVC005 17/17 A2972 RMK AO2 T01700170
KC75 221035Z AUTO 04003KT 7SM -RA OVC007 17/17 A2971 RMK AO2 T01700170
KC75 221010Z AUTO 00000KT 10SM -DZ OVC007 17/17 A2970 RMK AO2 T01700170
KC75 220955Z AUTO 04004KT 10SM -RA OVC007 17/17 A2970 RMK AO2 P0010 T01700170
KC75 220935Z AUTO 04004KT 10SM -RA OVC007 17/17 A2970 RMK AO2 P0010 T01680168
KC75 220915Z AUTO 04004KT 4SM +RA BKN007 OVC025 17/17 A2970 RMK AO2 P0007 T01690169
KC75 220855Z AUTO 03004KT 7SM RA OVC007 17/17 A2970 RMK AO2 P0004 60051 T01700170
KC75 220835Z AUTO 04003KT 7SM RA OVC007 17/17 A2970 RMK AO2 P0003 T01700170
KC75 220815Z AUTO 02003KT 7SM -RA OVC007 17/17 A2970 RMK AO2 LTG DSNT S P0002 T01700170
KC75 220755Z AUTO 05005KT 2SM +RA OVC007 17/17 A2970 RMK AO2 P0037 T01700170
KC75 220735Z AUTO 04006KT 4SM RA BKN007 OVC010 17/17 A2970 RMK AO2 P0014 T01720172
KC75 220715Z AUTO 04005KT 3SM +RA BKN007 BKN017 OVC026 18/18 A2970 RMK AO2 P0007 T01760175
KC75 220655Z AUTO 03004KT 3SM +RA SCT005 BKN008 OVC016 18/18 A2971 RMK AO2 P0008 T01800176
KC75 220635Z AUTO 07008KT 10SM RA BKN010 OVC016 18/18 A2972 RMK AO2 T01810175
KC75 220615Z AUTO 06005KT 10SM BKN012 OVC018 18/17 A2972 RMK AO2 T01810174
KC75 220555Z AUTO 07008KT 10SM OVC012 18/18 A2972 RMK AO2 T01840175 10200 20184 402650184
KC75 220535Z AUTO 06007G14KT 10SM OVC010 19/18 A2971 RMK AO2 T01850175
KC75 220515Z AUTO 06009KT 10SM OVC010 19/18 A2972 RMK AO2 T01880182
KC75 220455Z AUTO 05008KT 10SM OVC008 19/19 A2973 RMK AO2 T01900185
KC75 220435Z AUTO 04004KT 10SM OVC010 20/19 A2972 RMK AO2 T01950190
KC75 220415Z AUTO 06006KT 10SM OVC010 20/19 A2973 RMK AO2 T01950190
KC75 220355Z AUTO 09005KT 10SM OVC010 20/19 A2973 RMK AO2 T01950190
KC75 220335Z AUTO 08007KT 10SM BKN012 OVC027 19/19 A2973 RMK AO2 T01930190
KC75 220315Z AUTO 09006KT 10SM OVC010 19/19 A2973 RMK AO2 T01930190
KC75 220255Z AUTO 07009KT 10SM SCT007 BKN012 OVC025 19/19 A2973 RMK AO2 T01940190
KC75 220235Z AUTO 07005KT 10SM OVC008 20/19 A2972 RMK AO2 T01950192
KC75 220215Z AUTO 06007KT 10SM OVC010 20/19 A2972 RMK AO2 T01950194
KC75 220155Z AUTO 05003KT 10SM OVC010 20/19 A2971 RMK AO2 T01960194
KC75 220135Z AUTO 06006KT 10SM OVC010 20/20 A2971 RMK AO2 LTG DSNT E T01960195
KC75 220115Z AUTO 05003KT 10SM OVC010 20/19 A2971 RMK AO2 T01960194
KC75 220055Z AUTO 07005KT 10SM OVC008 20/20 A2970 RMK AO2 T01960195
KC75 220035Z AUTO 05006KT 10SM OVC008 20/20 A2970 RMK AO2 T01960195
KC75 220010Z AUTO 06004KT 10SM OVC006 20/20 A2970 RMK AO2 T01980196
KC75 212355Z AUTO 07004KT 10SM OVC006 20/20 A2970 RMK AO2 LTG DSNT NE 60028 T02000197 10265 20191